SABE/AEP METAR and TAF weather

Enter ICAO airport designator
Station Type Date Time Source
SABE METAR 2019/06/17 07:35 UTC NOAA

SABE 170735Z 11012KT 9999 OVC003 17/16 Q1020 RERA


Station Type Date Time Source
SABE Decoded METAR 2019/06/17 07:35 UTC NOAA

Aeroparque Bs. As. Aerodrome, Argentina (SABE) 34-34S 058-25W 6M
Jun 17, 2019 - 03:35 AM EDT / 2019.06.17 0735 UTC
Wind: from the ESE (110 degrees) at 14 MPH (12 KT):0
Visibility: greater than 7 mile(s):0
Sky conditions: overcast
Temperature: 62 F (17 C)
Dew Point: 60 F (16 C)
Relative Humidity: 93%
Pressure (altimeter): 30.12 in. Hg (1020 hPa)
ob: SABE 170735Z 11012KT 9999 OVC003 17/16 Q1020 RERA
cycle: 7

Station Type Date Time Source
SABE TAF 2019/06/17 06:21 UTC NOAA

TAF SABE 170500Z 1706/1806 11015KT 8000 -DZ OVC004 TX17/1718Z TN13/1710Z
TEMPO 1708/1711 5000 -DZ BR OVC003
BECMG 1713/1716 VRB03KT 4000 TSRA BKN007 OVC030 FEW040CB
BECMG 1808/1810 25010KT 7000 RA BKN010 OVC040

Example: see airport list